Time;durP1;ratioP1;P1;durP2;ratioP2;P2;SDS_P1;SDS_P2;PMS_P1;PMS_P2;Temp;Humidity;BMP_temperature;BMP_pressure;BME280_temperature;BME280_humidity;BME280_pressure;Samples;Min_cycle;Max_cycle;Signal;HPM_P1;HPM_P2
2021/09/13 00:01:54;;;;;;;0.30;0.30;;;;;;;16.65;81.94;100371.13;5030344;28;20279;-66
2021/09/13 00:04:23;;;;;;;0.63;0.30;;;;;;;16.62;82.08;100382.28;5030537;28;20194;-66
2021/09/13 00:06:52;;;;;;;0.30;0.30;;;;;;;16.43;82.05;100356.09;5024146;28;20222;-66
2021/09/13 00:09:20;;;;;;;0.27;0.20;;;;;;;16.63;81.57;100390.25;5026470;28;20218;-66
2021/09/13 00:11:48;;;;;;;0.20;0.20;;;;;;;16.54;82.07;100391.16;5030198;28;20669;-66
2021/09/13 00:14:16;;;;;;;0.30;0.30;;;;;;;16.46;82.32;100385.63;5028741;28;20210;-67
2021/09/13 00:16:46;;;;;;;1.10;0.27;;;;;;;16.43;82.08;100403.03;5030406;28;20245;-66
2021/09/13 00:19:16;;;;;;;0.10;0.10;;;;;;;16.37;83.05;100408.22;5029779;28;20709;-67
2021/09/13 00:21:44;;;;;;;2.53;0.30;;;;;;;16.36;82.43;100404.66;5030399;28;20210;-67
2021/09/13 00:24:13;;;;;;;0.30;0.30;;;;;;;16.33;82.42;100401.41;5030265;28;20245;-67
2021/09/13 00:26:42;;;;;;;0.20;0.20;;;;;;;16.33;82.23;100410.38;5029862;28;20199;-67
2021/09/13 00:29:12;;;;;;;0.20;0.20;;;;;;;16.14;82.59;100416.72;5028936;28;20183;-67
2021/09/13 00:31:40;;;;;;;1.33;0.40;;;;;;;16.18;82.13;100421.84;5029603;28;20202;-67
2021/09/13 00:34:09;;;;;;;0.10;0.10;;;;;;;16.14;82.67;100415.84;5044339;28;20268;-67
2021/09/13 00:36:38;;;;;;;0.50;0.33;;;;;;;16.16;82.18;100435.53;5042867;28;20468;-68
2021/09/13 00:39:07;;;;;;;0.30;0.30;;;;;;;16.13;82.25;100442.09;5029897;28;20305;-66
2021/09/13 00:41:35;;;;;;;0.40;0.40;;;;;;;16.00;82.65;100451.56;5028127;28;20194;-66
2021/09/13 00:44:04;;;;;;;1.33;0.57;;;;;;;15.94;82.99;100468.41;5029880;28;20195;-67
2021/09/13 00:46:32;;;;;;;1.40;0.40;;;;;;;15.60;83.36;100433.63;5044590;28;20812;-67
2021/09/13 00:49:00;;;;;;;2.73;0.40;;;;;;;15.72;83.44;100459.59;5028261;28;20198;-67
2021/09/13 00:51:29;;;;;;;0.57;0.50;;;;;;;15.74;83.34;100467.56;5029019;28;20560;-66
2021/09/13 00:53:59;;;;;;;2.93;0.40;;;;;;;15.83;82.42;100466.69;5029620;28;20202;-67
2021/09/13 00:56:27;;;;;;;0.40;0.40;;;;;;;15.74;82.88;100465.72;5029342;28;20202;-67
2021/09/13 00:58:55;;;;;;;0.63;0.60;;;;;;;15.82;82.57;100465.84;5024307;28;20219;-67
2021/09/13 01:01:23;;;;;;;1.60;0.53;;;;;;;15.48;83.11;100438.31;5043461;28;20693;-66
2021/09/13 01:03:52;;;;;;;2.33;0.50;;;;;;;15.69;82.93;100469.84;5044432;28;20231;-66
2021/09/13 01:06:20;;;;;;;0.83;0.60;;;;;;;15.47;82.87;100441.19;5041198;28;20198;-66
2021/09/13 01:08:48;;;;;;;0.40;0.40;;;;;;;15.31;83.00;100446.31;5027089;28;20575;-66
2021/09/13 01:11:18;;;;;;;0.50;0.50;;;;;;;15.41;83.45;100458.00;5034623;28;20688;-67
2021/09/13 01:13:46;;;;;;;0.50;0.50;;;;;;;15.52;83.52;100474.94;5037239;28;20194;-67
2021/09/13 01:16:14;;;;;;;0.60;0.60;;;;;;;15.27;83.13;100443.03;5026956;28;20281;-67
2021/09/13 01:18:42;;;;;;;1.13;0.30;;;;;;;15.57;82.87;100492.59;5026611;28;20687;-67
2021/09/13 01:21:11;;;;;;;2.60;0.60;;;;;;;15.43;83.29;100486.63;5026498;28;20225;-67
2021/09/13 01:23:43;;;;;;;0.37;0.37;;;;;;;15.48;83.04;100489.75;5026333;28;20206;-66
2021/09/13 01:26:14;;;;;;;1.60;0.50;;;;;;;15.33;83.67;100495.75;5027293;28;20202;-68
2021/09/13 01:28:42;;;;;;;0.50;0.50;;;;;;;15.35;83.09;100496.44;5043750;28;20203;-67
2021/09/13 01:31:14;;;;;;;0.60;0.60;;;;;;;15.39;82.79;100497.88;5021999;28;20195;-67
2021/09/13 01:33:45;;;;;;;2.03;0.70;;;;;;;15.32;83.11;100505.72;5043960;28;20210;-67
2021/09/13 01:36:22;;;;;;;0.50;0.50;;;;;;;15.43;82.37;100512.84;5026698;28;20560;-67
2021/09/13 01:38:52;;;;;;;0.67;0.33;;;;;;;15.35;83.38;100509.97;5043301;28;20503;-65
2021/09/13 01:41:20;;;;;;;0.70;0.70;;;;;;;15.24;83.06;100494.72;5043244;28;20206;-67
2021/09/13 01:43:51;;;;;;;0.53;0.53;;;;;;;15.35;82.93;100512.69;5026155;28;20246;-67
2021/09/13 01:46:19;;;;;;;3.17;0.93;;;;;;;15.29;82.49;100521.34;5026847;28;20241;-66
2021/09/13 01:48:50;;;;;;;0.70;0.70;;;;;;;15.25;82.68;100525.31;5043359;28;20340;-67
2021/09/13 01:51:18;;;;;;;3.07;0.73;;;;;;;15.14;83.37;100527.16;5027201;28;20202;-67
2021/09/13 01:53:47;;;;;;;6.50;0.97;;;;;;;15.13;82.31;100509.22;5043660;28;20301;-68
2021/09/13 01:56:17;;;;;;;1.33;0.90;;;;;;;15.25;82.02;100511.78;5039044;28;20225;-68
2021/09/13 01:58:45;;;;;;;0.80;0.80;;;;;;;15.03;83.06;100508.34;5024990;28;20198;-66
2021/09/13 02:01:14;;;;;;;1.47;1.00;;;;;;;15.07;82.02;100506.22;5023997;28;20207;-66
2021/09/13 02:03:42;;;;;;;6.90;0.90;;;;;;;15.06;82.24;100509.91;5025040;28;20199;-66
2021/09/13 02:06:11;;;;;;;1.10;0.87;;;;;;;15.10;82.34;100517.63;5026726;28;20233;-66
2021/09/13 02:08:40;;;;;;;2.83;1.00;;;;;;;15.00;82.02;100521.25;5026438;28;20440;-66
2021/09/13 02:11:09;;;;;;;0.90;0.90;;;;;;;15.05;81.86;100525.28;5043100;28;20202;-66
2021/09/13 02:13:39;;;;;;;2.57;1.07;;;;;;;15.04;81.62;100528.13;5026477;28;20212;-66
2021/09/13 02:16:09;;;;;;;0.93;0.80;;;;;;;14.97;80.82;100533.22;5042885;28;20203;-67
2021/09/13 02:18:39;;;;;;;2.30;0.90;;;;;;;14.96;80.84;100541.47;5026366;28;20358;-67
2021/09/13 02:21:08;;;;;;;0.87;0.87;;;;;;;14.78;80.58;100538.56;5042996;28;20246;-67
2021/09/13 02:23:38;;;;;;;2.50;0.77;;;;;;;14.60;80.89;100539.19;5026477;28;20304;-67
2021/09/13 02:26:10;;;;;;;3.27;1.07;;;;;;;14.51;80.95;100536.44;5020703;28;20210;-67
2021/09/13 02:28:40;;;;;;;1377.93;621.10;;;;;;;14.53;80.73;100556.09;5019112;28;20681;-67
2021/09/13 02:31:08;;;;;;;27.17;20.03;;;;;;;14.65;80.49;100548.75;5025254;28;20211;-67
2021/09/13 02:33:36;;;;;;;3.90;3.47;;;;;;;14.72;80.43;100550.78;5027356;28;20665;-67
2021/09/13 02:36:05;;;;;;;2.00;1.90;;;;;;;14.51;80.31;100526.50;5023029;28;20218;-66
2021/09/13 02:38:36;;;;;;;4.17;3.33;;;;;;;14.73;81.33;100559.75;5040933;28;20193;-66
2021/09/13 02:41:04;;;;;;;3.37;2.83;;;;;;;14.78;80.86;100577.28;5019709;28;20313;-66
2021/09/13 02:43:33;;;;;;;4.03;1.80;;;;;;;14.77;80.34;100577.41;5026266;28;20206;-67
2021/09/13 02:46:03;;;;;;;2.73;2.53;;;;;;;14.75;80.42;100571.28;5026206;28;20203;-67
2021/09/13 02:48:32;;;;;;;5.13;1.00;;;;;;;14.67;80.65;100579.19;5026219;28;20924;-66
2021/09/13 02:51:04;;;;;;;3.90;3.23;;;;;;;14.64;80.51;100598.38;5026205;28;20281;-67
2021/09/13 02:53:34;;;;;;;6.37;2.40;;;;;;;14.57;80.22;100611.59;5042822;28;20217;-67
2021/09/13 02:56:03;;;;;;;4.73;4.33;;;;;;;14.48;79.87;100605.13;5026180;28;20210;-67
2021/09/13 02:58:35;;;;;;;3.33;3.13;;;;;;;14.44;79.72;100611.78;5036246;28;20207;-67
2021/09/13 03:01:05;;;;;;;18.03;11.47;;;;;;;14.41;79.33;100614.72;5029322;28;20573;-68
2021/09/13 03:03:34;;;;;;;1.17;0.90;;;;;;;14.25;79.00;100612.47;5021287;28;20214;-67
2021/09/13 03:06:02;;;;;;;3.53;1.00;;;;;;;13.93;78.18;100601.69;5042907;28;20206;-67
2021/09/13 03:08:30;;;;;;;1.53;1.17;;;;;;;14.11;78.39;100620.03;5024314;28;20198;-68
2021/09/13 03:10:58;;;;;;;6.83;1.03;;;;;;;13.92;77.94;100613.47;5024234;28;20687;-68
2021/09/13 03:13:26;;;;;;;1.37;0.70;;;;;;;13.96;77.43;100636.53;5026763;28;20206;-67
2021/09/13 03:15:54;;;;;;;3.20;0.90;;;;;;;13.96;78.26;100638.38;5029178;28;20271;-68
2021/09/13 03:18:24;;;;;;;0.87;0.73;;;;;;;13.91;77.35;100638.78;5026112;28;20241;-68
2021/09/13 03:20:52;;;;;;;3.60;1.00;;;;;;;13.84;77.41;100634.88;5029558;28;20245;-67
2021/09/13 03:23:21;;;;;;;1.40;0.93;;;;;;;13.75;77.86;100635.63;5028049;28;20197;-67
2021/09/13 03:25:49;;;;;;;0.97;0.97;;;;;;;13.73;77.10;100645.69;5029590;28;20229;-67
2021/09/13 03:28:17;;;;;;;4.60;1.43;;;;;;;13.73;77.05;100642.97;5029701;28;20206;-68
2021/09/13 03:30:45;;;;;;;0.70;0.70;;;;;;;13.72;77.01;100648.50;5046094;28;20201;-68
2021/09/13 03:33:15;;;;;;;2.00;0.90;;;;;;;13.76;77.38;100648.13;5028589;28;20209;-67
2021/09/13 03:35:44;;;;;;;0.70;0.70;;;;;;;13.65;76.99;100634.66;5029160;28;20606;-67
2021/09/13 03:38:12;;;;;;;1.60;0.90;;;;;;;13.72;77.23;100646.66;5025835;28;20209;-67
2021/09/13 03:40:40;;;;;;;2.60;0.83;;;;;;;13.68;76.96;100646.06;5029220;28;20327;-67
2021/09/13 03:43:09;;;;;;;2.93;0.90;;;;;;;13.68;77.20;100658.69;5044258;28;20272;-66
2021/09/13 03:45:37;;;;;;;1.20;1.00;;;;;;;13.66;77.22;100653.44;5029452;28;20197;-67
2021/09/13 03:48:20;;;;;;;1.90;0.90;;;;;;;13.65;77.32;100656.25;5030287;28;20215;-67
2021/09/13 03:50:51;;;;;;;0.70;0.70;;;;;;;13.63;77.14;100666.31;5029144;28;20202;-67
2021/09/13 03:53:19;;;;;;;1.00;1.00;;;;;;;13.59;77.82;100668.41;5037541;28;20202;-67
2021/09/13 03:55:48;;;;;;;0.80;0.63;;;;;;;13.58;77.37;100673.94;5025131;28;20638;-66
2021/09/13 03:58:16;;;;;;;3.07;0.80;;;;;;;13.43;77.67;100651.75;5029099;28;20860;-66
2021/09/13 04:00:44;;;;;;;0.73;0.73;;;;;;;13.58;77.67;100676.63;5028702;28;20226;-67
2021/09/13 04:03:21;;;;;;;1.60;1.13;;;;;;;13.49;77.98;100645.03;5021483;28;20208;-66
2021/09/13 04:05:56;;;;;;;1.33;1.00;;;;;;;13.59;77.74;100672.97;5030171;28;20307;-67
2021/09/13 04:09:00;;;;;;;4.30;1.30;;;;;;;13.53;77.57;100673.47;5021847;28;20215;-67
2021/09/13 04:11:49;;;;;;;1.13;1.03;;;;;;;13.51;78.21;100687.06;5022251;28;20292;-67
2021/09/13 04:14:35;;;;;;;0.90;0.90;;;;;;;13.42;77.96;100679.72;5023285;28;20263;-67
2021/09/13 04:17:23;;;;;;;1.03;1.00;;;;;;;13.42;77.82;100687.78;5022209;28;20325;-67
2021/09/13 04:20:18;;;;;;;3.57;0.83;;;;;;;13.27;77.28;100684.50;5025459;28;20225;-67
2021/09/13 04:23:04;;;;;;;5.70;1.03;;;;;;;13.23;77.19;100685.75;5028134;28;20206;-67
2021/09/13 04:25:54;;;;;;;0.77;0.77;;;;;;;13.24;77.76;100708.16;5019957;28;20230;-67
2021/09/13 04:28:40;;;;;;;1.20;0.73;;;;;;;13.17;77.44;100710.50;5028930;28;20318;-67
2021/09/13 04:31:19;;;;;;;1.33;0.70;;;;;;;13.18;77.45;100719.44;5041154;28;20235;-67
2021/09/13 04:34:00;;;;;;;1.43;0.80;;;;;;;13.08;77.03;100719.25;5037709;28;20221;-67
2021/09/13 04:36:47;;;;;;;1.50;0.90;;;;;;;12.99;76.58;100725.38;5028046;28;20216;-66
2021/09/13 04:39:39;;;;;;;1.33;0.90;;;;;;;12.90;76.62;100728.81;5004681;28;20220;-66
2021/09/13 04:42:28;;;;;;;3.83;0.70;;;;;;;12.81;76.48;100722.28;4995368;28;20228;-66
2021/09/13 04:45:28;;;;;;;2.40;1.10;;;;;;;12.96;76.51;100739.09;5018160;28;20203;-66
2021/09/13 04:48:14;;;;;;;1.57;0.90;;;;;;;12.65;76.19;100709.13;5027139;28;20429;-66
2021/09/13 04:50:58;;;;;;;1.00;1.00;;;;;;;12.62;76.34;100708.53;5042620;28;20234;-65
2021/09/13 04:54:01;;;;;;;1.80;0.87;;;;;;;12.88;76.54;100763.09;5017061;28;20287;-67
2021/09/13 04:56:31;;;;;;;2.30;0.90;;;;;;;12.84;76.62;100769.69;5027318;28;20216;-65
2021/09/13 04:59:00;;;;;;;1.17;0.73;;;;;;;12.81;76.72;100775.31;5026454;28;20205;-66
2021/09/13 05:01:29;;;;;;;1.23;1.00;;;;;;;12.66;76.51;100767.44;5025015;28;20227;-66
2021/09/13 05:03:58;;;;;;;1.90;1.00;;;;;;;12.78;76.91;100786.34;5022465;28;20205;-66
2021/09/13 05:06:27;;;;;;;3.00;0.80;;;;;;;12.74;76.60;100791.09;5030869;28;20305;-67
2021/09/13 05:08:56;;;;;;;1.60;0.90;;;;;;;12.72;76.03;100802.00;5019606;28;20212;-66
2021/09/13 05:11:31;;;;;;;1.43;0.90;;;;;;;12.74;76.34;100810.81;5042830;28;20208;-67
2021/09/13 05:13:59;;;;;;;3.00;1.00;;;;;;;12.78;76.28;100810.59;5012749;28;20199;-67
2021/09/13 05:16:30;;;;;;;1.40;0.67;;;;;;;12.75;75.96;100800.91;5035727;28;20590;-67
2021/09/13 05:18:58;;;;;;;4.00;1.17;;;;;;;12.76;75.96;100802.63;5026888;28;20232;-67
2021/09/13 05:21:27;;;;;;;0.80;0.80;;;;;;;12.71;74.89;100807.50;5036589;28;20229;-67
2021/09/13 05:24:00;;;;;;;1.37;0.90;;;;;;;12.27;74.85;100763.22;5027249;28;20571;-67
2021/09/13 05:26:28;;;;;;;1.03;0.80;;;;;;;12.38;74.71;100808.19;5017687;28;20214;-66
2021/09/13 05:28:58;;;;;;;1.57;0.90;;;;;;;12.48;74.64;100820.00;5014928;28;20668;-67
2021/09/13 05:31:26;;;;;;;1.10;0.90;;;;;;;12.50;75.15;100825.28;5044374;28;20206;-67
2021/09/13 05:33:54;;;;;;;1.37;1.00;;;;;;;12.36;74.60;100823.63;5020666;28;20208;-67
2021/09/13 05:36:23;;;;;;;2.87;0.90;;;;;;;12.41;74.55;100818.75;5023252;28;20673;-67
2021/09/13 05:38:51;;;;;;;0.80;0.80;;;;;;;12.40;74.37;100825.09;5035446;28;20205;-67
2021/09/13 05:41:45;;;;;;;2.37;0.90;;;;;;;12.28;74.57;100799.09;5031004;28;20237;-67
2021/09/13 05:44:14;;;;;;;2.97;0.90;;;;;;;12.39;73.83;100832.31;5017083;28;20194;-67
2021/09/13 05:46:42;;;;;;;0.63;0.63;;;;;;;12.39;73.22;100835.00;5022153;28;20422;-67
2021/09/13 05:49:11;;;;;;;1.33;0.83;;;;;;;12.40;73.69;100839.44;5024287;28;20651;-67
2021/09/13 05:51:45;;;;;;;3.33;0.87;;;;;;;12.45;73.22;100852.56;5018204;28;20537;-67
2021/09/13 05:54:22;;;;;;;1.00;0.80;;;;;;;12.49;73.66;100854.03;5037372;28;20608;-66
2021/09/13 05:56:52;;;;;;;6.43;0.80;;;;;;;12.57;73.32;100866.97;5024873;28;20226;-67
2021/09/13 05:59:23;;;;;;;1.17;1.00;;;;;;;12.71;73.41;100859.56;5022145;28;20204;-66
2021/09/13 06:01:59;;;;;;;0.60;0.60;;;;;;;12.61;72.45;100863.06;5036893;28;20225;-66
2021/09/13 06:04:29;;;;;;;1.30;0.70;;;;;;;12.74;72.34;100866.56;5043301;28;20204;-65
2021/09/13 06:06:58;;;;;;;1.90;0.90;;;;;;;12.93;72.49;100866.03;5027241;28;20229;-66
2021/09/13 06:09:28;;;;;;;1.97;0.90;;;;;;;13.17;71.65;100871.41;5027158;28;20258;-66
2021/09/13 06:11:57;;;;;;;1.93;0.83;;;;;;;13.22;71.50;100880.03;5042344;28;20682;-66
2021/09/13 06:14:30;;;;;;;2.63;0.83;;;;;;;13.23;69.68;100882.63;5043029;28;20208;-65
2021/09/13 06:17:00;;;;;;;1.93;0.73;;;;;;;13.17;69.79;100882.19;5024266;28;20700;-66
2021/09/13 06:19:34;;;;;;;4.20;0.90;;;;;;;13.23;70.35;100881.75;5026758;28;21030;-65
2021/09/13 06:22:03;;;;;;;0.77;0.77;;;;;;;13.42;70.58;100892.81;5019850;28;20245;-66
2021/09/13 06:24:32;;;;;;;1.13;0.73;;;;;;;13.46;69.96;100898.84;5025864;28;20212;-66
2021/09/13 06:27:00;;;;;;;1.67;0.90;;;;;;;13.31;69.09;100892.81;5024359;28;20202;-66
2021/09/13 06:29:31;;;;;;;2.93;0.90;;;;;;;13.20;69.10;100888.25;5041297;28;20291;-65
2021/09/13 06:32:00;;;;;;;1.77;0.70;;;;;;;13.36;69.68;100904.09;5042321;28;20202;-65
2021/09/13 06:34:30;;;;;;;1.03;0.50;;;;;;;13.32;69.58;100903.47;5025057;28;20216;-66
2021/09/13 06:36:58;;;;;;;2.27;0.80;;;;;;;13.11;68.35;100902.38;5044631;28;20205;-66
2021/09/13 06:39:26;;;;;;;3.47;0.90;;;;;;;13.22;69.08;100902.47;5044541;28;20355;-66
2021/09/13 06:41:54;;;;;;;1.47;0.80;;;;;;;13.42;69.32;100908.16;5044701;28;20607;-66
2021/09/13 06:44:36;;;;;;;3.30;0.77;;;;;;;13.67;68.97;100907.97;5044346;28;20557;-66
2021/09/13 06:47:06;;;;;;;1.93;1.10;;;;;;;13.76;67.86;100909.09;5044169;28;20207;-66
2021/09/13 06:49:35;;;;;;;2.40;0.70;;;;;;;14.05;68.35;100907.66;5028991;28;20205;-67
2021/09/13 06:52:05;;;;;;;0.90;0.87;;;;;;;14.24;66.80;100913.31;5026893;28;20570;-66
2021/09/13 06:54:33;;;;;;;408.30;240.97;;;;;;;14.57;66.75;100920.56;5044552;28;20252;-66
2021/09/13 06:57:01;;;;;;;18.40;12.10;;;;;;;14.59;65.41;100899.66;5029309;28;20205;-66
2021/09/13 06:59:30;;;;;;;4.13;3.57;;;;;;;14.93;64.48;100904.97;5028609;28;20202;-66
2021/09/13 07:01:59;;;;;;;3.37;2.20;;;;;;;14.84;63.25;100897.63;5028973;28;20495;-66
2021/09/13 07:04:29;;;;;;;0.90;0.87;;;;;;;15.05;63.24;100917.50;5028599;28;20194;-65
2021/09/13 07:06:57;;;;;;;4.03;0.90;;;;;;;15.19;63.86;100925.28;5029005;28;20264;-66
2021/09/13 07:09:26;;;;;;;2.43;0.77;;;;;;;15.47;63.81;100917.56;5028936;28;20220;-66
2021/09/13 07:11:56;;;;;;;0.60;0.60;;;;;;;15.39;61.92;100926.31;5028821;28;20286;-66
2021/09/13 07:14:25;;;;;;;0.60;0.60;;;;;;;15.63;61.90;100933.38;5026576;28;20203;-66
2021/09/13 07:16:53;;;;;;;1.43;0.80;;;;;;;15.81;61.32;100926.38;5029412;28;20198;-66
2021/09/13 07:19:23;;;;;;;0.50;0.50;;;;;;;15.83;60.42;100940.63;4989732;28;1143298;-66
2021/09/13 07:21:51;;;;;;;0.90;0.90;;;;;;;15.90;59.80;100944.50;5029841;28;20245;-66
2021/09/13 07:24:20;;;;;;;0.50;0.47;;;;;;;15.55;59.73;100947.53;5029892;28;20244;-66
2021/09/13 07:26:49;;;;;;;3.53;1.00;;;;;;;15.73;60.42;100937.88;5028304;28;20647;-66
2021/09/13 07:29:17;;;;;;;2.40;0.60;;;;;;;15.73;59.98;100937.88;5026451;28;20673;-66
2021/09/13 07:31:45;;;;;;;0.63;0.63;;;;;;;15.82;58.39;100930.78;5028044;28;20256;-66
2021/09/13 07:34:13;;;;;;;1.13;0.63;;;;;;;16.26;59.68;100967.56;5026168;28;20207;-66
2021/09/13 07:36:43;;;;;;;0.83;0.70;;;;;;;16.49;59.65;100968.22;5020576;28;20210;-66
2021/09/13 07:39:11;;;;;;;1.07;0.57;;;;;;;16.56;58.36;100965.84;5022742;28;20684;-66
2021/09/13 07:41:39;;;;;;;1.27;0.50;;;;;;;16.07;57.43;100972.84;5020861;28;20249;-66
2021/09/13 07:44:07;;;;;;;1.47;0.60;;;;;;;15.90;57.52;100978.88;5019927;28;20227;-66
2021/09/13 07:46:35;;;;;;;1.67;0.60;;;;;;;16.07;58.50;100984.56;5021705;28;20206;-65
2021/09/13 07:49:03;;;;;;;0.70;0.40;;;;;;;15.64;57.80;100968.44;5021068;28;20657;-65
2021/09/13 07:51:31;;;;;;;1.80;0.70;;;;;;;15.47;58.56;101001.47;5017914;28;20681;-65
2021/09/13 07:54:01;;;;;;;1.00;0.67;;;;;;;15.61;58.09;101000.31;5020897;28;21598;-65
2021/09/13 07:56:29;;;;;;;2.63;0.60;;;;;;;15.54;58.67;101014.34;5019504;28;20195;-65
2021/09/13 07:58:57;;;;;;;1.43;0.60;;;;;;;15.43;58.93;101002.72;5017483;28;20207;-65
2021/09/13 08:01:25;;;;;;;2.63;0.60;;;;;;;15.49;58.57;101013.00;5019441;28;20206;-65
2021/09/13 08:03:54;;;;;;;0.53;0.50;;;;;;;15.43;58.88;101016.25;5018964;28;20229;-67
2021/09/13 08:06:22;;;;;;;1.13;0.53;;;;;;;15.28;59.06;101017.50;5019054;28;20202;-65
2021/09/13 08:08:51;;;;;;;4.03;0.70;;;;;;;15.41;59.62;101023.63;5020958;28;20198;-65
2021/09/13 08:11:20;;;;;;;0.67;0.60;;;;;;;15.64;59.30;101021.75;5022142;28;20267;-65
2021/09/13 08:13:50;;;;;;;0.60;0.60;;;;;;;15.90;59.30;101022.22;5021677;28;20538;-65
2021/09/13 08:16:18;;;;;;;0.90;0.60;;;;;;;16.21;60.17;101020.41;5019735;28;20699;-65
2021/09/13 08:18:46;;;;;;;0.67;0.50;;;;;;;16.29;59.07;101018.78;5020435;28;20308;-65
2021/09/13 08:21:19;;;;;;;0.70;0.63;;;;;;;16.28;58.52;101025.19;5021418;28;20206;-66
2021/09/13 08:23:47;;;;;;;0.63;0.47;;;;;;;16.28;57.38;101027.06;5037270;28;20238;-67
2021/09/13 08:26:16;;;;;;;0.70;0.70;;;;;;;16.41;57.70;101033.09;5021829;28;21323;-67
2021/09/13 08:28:46;;;;;;;1.03;0.50;;;;;;;16.55;58.53;101027.34;5021381;28;20722;-66
2021/09/13 08:31:14;;;;;;;0.73;0.50;;;;;;;16.52;57.71;101037.56;5020672;28;20205;-66
2021/09/13 08:33:42;;;;;;;0.47;0.40;;;;;;;16.56;58.11;101022.78;5021820;28;20226;-66
2021/09/13 08:36:10;;;;;;;0.40;0.40;;;;;;;16.64;57.45;101026.50;5022614;28;20245;-66
2021/09/13 08:38:38;;;;;;;0.60;0.60;;;;;;;16.60;57.38;101033.22;5024397;28;20811;-66
2021/09/13 08:41:07;;;;;;;0.50;0.50;;;;;;;16.52;57.12;101041.13;5021037;28;20579;-66
2021/09/13 08:43:35;;;;;;;0.70;0.70;;;;;;;16.65;57.99;101038.22;5020201;28;20211;-67
2021/09/13 08:46:09;;;;;;;0.50;0.40;;;;;;;16.51;57.24;101033.13;5019817;28;20548;-66
2021/09/13 08:48:41;;;;;;;2.10;0.30;;;;;;;16.73;57.77;101041.13;5020103;28;20670;-67
2021/09/13 08:51:29;;;;;;;1.47;0.63;;;;;;;16.76;57.48;101049.84;5022899;28;20662;-66
2021/09/13 08:54:00;;;;;;;0.30;0.30;;;;;;;16.77;56.93;101048.88;5021329;28;20195;-66
2021/09/13 08:56:33;;;;;;;1.57;0.50;;;;;;;16.81;57.26;101038.59;5023171;28;20285;-66
2021/09/13 08:59:03;;;;;;;0.50;0.50;;;;;;;16.99;57.88;101060.53;5021485;28;20236;-67
2021/09/13 09:01:33;;;;;;;0.40;0.40;;;;;;;16.77;56.41;101064.28;5023084;28;20526;-67
2021/09/13 09:04:03;;;;;;;0.57;0.40;;;;;;;16.99;57.60;101072.22;5021002;28;21137;-67
2021/09/13 09:06:34;;;;;;;0.77;0.67;;;;;;;16.97;56.19;101066.09;5023378;28;20682;-67
2021/09/13 09:09:04;;;;;;;1.80;0.50;;;;;;;16.92;56.31;101068.34;5022791;28;20674;-67
2021/09/13 09:11:54;;;;;;;0.53;0.50;;;;;;;16.39;55.56;101082.03;5021210;28;20681;-67
2021/09/13 09:14:34;;;;;;;0.70;0.70;;;;;;;16.38;56.40;101085.75;5023090;28;20209;-67
2021/09/13 09:17:05;;;;;;;0.40;0.40;;;;;;;16.41;54.58;101079.19;5021840;28;20210;-67
2021/09/13 09:19:33;;;;;;;1.33;0.40;;;;;;;16.50;56.30;101077.53;5020936;28;20296;-67
2021/09/13 09:22:25;;;;;;;2.43;0.57;;;;;;;16.11;53.75;101078.13;5021918;28;20203;-66
2021/09/13 09:24:55;;;;;;;0.77;0.70;;;;;;;16.13;56.64;101080.72;5021209;28;20249;-67
2021/09/13 09:27:25;;;;;;;1.63;0.60;;;;;;;15.99;56.43;101067.50;5019161;28;20268;-67
2021/09/13 09:29:54;;;;;;;0.40;0.40;;;;;;;16.32;55.89;101077.28;5018714;28;20393;-66
2021/09/13 09:32:25;;;;;;;1.83;0.50;;;;;;;16.58;56.59;101075.88;5020919;28;20202;-67
2021/09/13 09:34:54;;;;;;;0.73;0.40;;;;;;;16.91;56.72;101088.34;5035064;28;20202;-67
2021/09/13 09:37:25;;;;;;;0.77;0.53;;;;;;;16.97;55.89;101076.09;5019744;28;20198;-67
2021/09/13 09:39:56;;;;;;;0.47;0.47;;;;;;;17.17;56.16;101082.44;5018767;28;21290;-67
2021/09/13 09:42:30;;;;;;;0.63;0.40;;;;;;;16.96;54.63;101091.50;5019547;28;20214;-67
2021/09/13 09:44:59;;;;;;;1.43;0.60;;;;;;;17.23;54.28;101087.31;5019691;28;20589;-67
2021/09/13 09:47:28;;;;;;;1.00;0.50;;;;;;;17.45;53.39;101084.38;5019713;28;20280;-68
2021/09/13 09:49:58;;;;;;;0.57;0.57;;;;;;;16.91;53.08;101074.78;5019018;28;20217;-67
2021/09/13 09:52:35;;;;;;;0.33;0.33;;;;;;;17.35;53.61;101089.78;5019118;28;20207;-67
2021/09/13 09:55:08;;;;;;;0.50;0.50;;;;;;;17.56;53.69;101097.81;5019755;28;20203;-67
2021/09/13 09:57:36;;;;;;;0.40;0.30;;;;;;;17.57;53.27;101102.25;5018942;28;20203;-67
2021/09/13 10:00:20;;;;;;;0.83;0.40;;;;;;;17.72;53.15;101093.72;5019435;28;20315;-67
2021/09/13 10:02:49;;;;;;;0.50;0.50;;;;;;;17.86;54.32;101112.34;5018325;28;20201;-67
2021/09/13 10:05:17;;;;;;;0.30;0.30;;;;;;;17.34;53.78;101052.75;5019267;28;20223;-67
2021/09/13 10:07:48;;;;;;;0.50;0.50;;;;;;;17.61;53.13;101114.56;5018538;28;20210;-67
2021/09/13 10:10:17;;;;;;;0.47;0.47;;;;;;;17.73;53.58;101117.16;5019029;28;20212;-67
2021/09/13 10:12:45;;;;;;;0.40;0.40;;;;;;;17.81;53.02;101120.91;5018725;28;20662;-67
2021/09/13 10:15:14;;;;;;;0.37;0.37;;;;;;;17.93;51.69;101118.91;5017230;28;20661;-67
2021/09/13 10:17:42;;;;;;;0.30;0.30;;;;;;;17.99;52.71;101121.91;5018427;28;20238;-68
2021/09/13 10:20:14;;;;;;;0.77;0.60;;;;;;;18.16;52.75;101123.06;5018702;28;20207;-67
2021/09/13 10:22:44;;;;;;;1.43;0.30;;;;;;;18.10;52.40;101104.63;5018998;28;20198;-67
2021/09/13 10:25:13;;;;;;;0.40;0.40;;;;;;;18.41;52.90;101118.91;5015956;28;20226;-66
2021/09/13 10:27:46;;;;;;;0.40;0.40;;;;;;;18.59;53.11;101127.16;5018576;28;20310;-67
2021/09/13 10:30:18;;;;;;;0.23;0.23;;;;;;;18.56;52.27;101119.28;5018314;28;20260;-67
2021/09/13 10:32:47;;;;;;;0.37;0.37;;;;;;;18.54;52.21;101091.38;5018429;28;20195;-67
2021/09/13 10:35:18;;;;;;;0.37;0.37;;;;;;;18.81;51.31;101126.88;5018384;28;20199;-67
2021/09/13 10:37:49;;;;;;;0.30;0.30;;;;;;;18.59;51.57;101083.63;5018561;28;20203;-67
2021/09/13 10:40:25;;;;;;;0.40;0.27;;;;;;;19.06;54.02;101135.38;5018871;28;20198;-67
2021/09/13 10:42:55;;;;;;;0.57;0.30;;;;;;;18.97;50.70;101133.53;5018582;28;20209;-67
2021/09/13 10:45:27;;;;;;;0.67;0.30;;;;;;;18.81;50.59;101131.44;5015724;28;20248;-67
2021/09/13 10:48:10;;;;;;;0.40;0.37;;;;;;;18.92;49.92;101139.44;5018363;28;20206;-67
2021/09/13 10:50:42;;;;;;;1.17;0.40;;;;;;;18.46;48.29;101137.50;5017482;28;20209;-67
2021/09/13 10:53:35;;;;;;;2.77;0.50;;;;;;;18.45;48.77;101127.63;5018440;28;20575;-67
2021/09/13 10:56:22;;;;;;;0.53;0.20;;;;;;;18.23;47.52;101131.50;5012480;28;20221;-67
2021/09/13 10:58:53;;;;;;;0.10;0.10;;;;;;;18.38;48.45;101134.66;5016784;28;20214;-67
2021/09/13 11:01:24;;;;;;;0.30;0.30;;;;;;;18.54;49.18;101135.78;5023435;28;20221;-67
2021/09/13 11:03:54;;;;;;;0.37;0.37;;;;;;;18.50;49.52;101133.50;5024548;28;20889;-67
2021/09/13 11:06:47;;;;;;;0.30;0.30;;;;;;;18.23;48.65;101088.88;5025702;28;20708;-67
2021/09/13 11:09:25;;;;;;;0.40;0.30;;;;;;;18.45;49.26;101139.38;5027101;28;20310;-67
2021/09/13 11:11:59;;;;;;;0.40;0.40;;;;;;;18.39;49.57;101134.53;5024988;28;20842;-67
2021/09/13 11:14:31;;;;;;;0.20;0.20;;;;;;;18.80;50.18;101141.47;5026171;28;20202;-67
2021/09/13 11:17:02;;;;;;;1.37;0.47;;;;;;;18.99;49.78;101147.88;5027477;28;20207;-67
2021/09/13 11:19:33;;;;;;;0.30;0.30;;;;;;;19.22;49.99;101136.44;5028584;28;20341;-67
2021/09/13 11:22:04;;;;;;;0.50;0.40;;;;;;;18.98;48.89;101127.97;5030606;28;20708;-67
2021/09/13 11:24:37;;;;;;;0.40;0.40;;;;;;;19.32;48.61;101141.00;5028735;28;20230;-67
2021/09/13 11:27:08;;;;;;;0.40;0.40;;;;;;;19.54;48.08;101146.91;5031207;28;20203;-67
2021/09/13 11:29:38;;;;;;;0.37;0.37;;;;;;;19.57;48.07;101117.66;5045752;28;20302;-67
2021/09/13 11:32:08;;;;;;;0.40;0.40;;;;;;;19.52;47.17;101145.34;5030969;28;20199;-67
2021/09/13 11:34:39;;;;;;;0.37;0.30;;;;;;;19.15;46.51;101156.25;5030628;28;20183;-67
2021/09/13 11:37:18;;;;;;;0.73;0.50;;;;;;;19.08;46.93;101150.56;5029231;28;20195;-68
2021/09/13 11:40:09;;;;;;;3.97;0.70;;;;;;;19.75;49.53;101149.38;5030739;28;20198;-67
2021/09/13 11:42:38;;;;;;;0.77;0.40;;;;;;;20.00;49.17;101157.84;5029028;28;20285;-68
2021/09/13 11:45:09;;;;;;;0.50;0.50;;;;;;;20.15;48.71;101157.13;5024984;28;20304;-68